createdAt,value
2019-05-06T00:02:20.702Z,97816.60
2019-05-06T00:04:54.216Z,97815.75
2019-05-06T00:07:25.934Z,97818.20
2019-05-06T00:09:57.847Z,97811.05
2019-05-06T00:12:30.308Z,97813.83
2019-05-06T00:15:04.001Z,97802.95
2019-05-06T00:17:35.316Z,97798.60
2019-05-06T00:20:08.998Z,97798.27
2019-05-06T00:22:43.501Z,97792.73
2019-05-06T00:25:19.008Z,97790.05
2019-05-06T00:28:09.725Z,97791.63
2019-05-06T00:30:43.946Z,97797.53
2019-05-06T00:33:15.561Z,97797.48
2019-05-06T00:35:47.272Z,97802.09
2019-05-06T00:38:19.952Z,97805.34
2019-05-06T00:40:54.388Z,97806.74
2019-05-06T00:43:27.381Z,97798.00
2019-05-06T00:45:59.005Z,97795.67
2019-05-06T00:48:30.984Z,97797.48
2019-05-06T00:51:04.513Z,97806.02
2019-05-06T00:53:38.452Z,97787.69
2019-05-06T00:56:10.468Z,97781.39
2019-05-06T00:58:43.606Z,97788.00
2019-05-06T01:01:26.357Z,97790.11
2019-05-06T01:03:50.949Z,97794.58
2019-05-06T01:06:24.653Z,97803.69
2019-05-06T01:08:56.627Z,97802.03
2019-05-06T01:11:28.089Z,97797.78
2019-05-06T01:14:05.150Z,97803.28
2019-05-06T01:16:36.796Z,97798.12
2019-05-06T01:19:08.426Z,97791.70
2019-05-06T01:21:39.929Z,97790.20
2019-05-06T01:24:14.589Z,97778.18
2019-05-06T01:26:45.988Z,97778.18
2019-05-06T01:29:19.138Z,97782.81
2019-05-06T01:31:51.014Z,97795.93
2019-05-06T01:34:24.473Z,97799.29
2019-05-06T01:36:56.898Z,97802.41
2019-05-06T01:39:59.553Z,97798.23
2019-05-06T01:42:36.505Z,97797.85
2019-05-06T01:45:10.071Z,97798.64
2019-05-06T01:47:43.746Z,97788.95
2019-05-06T01:50:15.664Z,97787.35
2019-05-06T01:52:47.714Z,97790.34
2019-05-06T01:55:19.174Z,97797.60
2019-05-06T01:57:51.124Z,97807.61
2019-05-06T02:00:24.955Z,97808.43
2019-05-06T02:02:56.769Z,97810.44
2019-05-06T02:05:28.317Z,97817.50
2019-05-06T02:08:00.447Z,97819.46
2019-05-06T02:10:31.897Z,97813.77
2019-05-06T02:13:04.302Z,97810.96
2019-05-06T02:15:36.538Z,97813.65
2019-05-06T02:18:08.459Z,97809.49
2019-05-06T02:20:44.529Z,97806.33
2019-05-06T02:23:19.387Z,97806.17
2019-05-06T02:25:54.003Z,97813.31
2019-05-06T02:28:27.924Z,97803.28
2019-05-06T02:31:18.936Z,97807.27
2019-05-06T02:34:18.259Z,97808.48
2019-05-06T02:37:01.781Z,97809.41
2019-05-06T02:39:34.211Z,97810.02
2019-05-06T02:42:08.437Z,97810.66
2019-05-06T02:44:40.158Z,97818.41
2019-05-06T02:47:35.120Z,97810.66
2019-05-06T02:50:13.281Z,97815.14
2019-05-06T02:52:44.404Z,97813.25
2019-05-06T02:55:17.083Z,97807.73
2019-05-06T02:57:48.838Z,97811.56
2019-05-06T03:00:23.908Z,97809.97
2019-05-06T03:02:55.640Z,97807.28
2019-05-06T03:05:27.270Z,97812.84
2019-05-06T03:07:58.897Z,97804.13
2019-05-06T03:10:32.923Z,97804.58
2019-05-06T03:13:05.042Z,97804.06
2019-05-06T03:15:36.888Z,97814.23
2019-05-06T03:18:09.193Z,97810.28
2019-05-06T03:20:58.230Z,97811.35
2019-05-06T03:23:34.670Z,97803.74
2019-05-06T03:26:06.843Z,97804.64
2019-05-06T03:28:43.734Z,97803.52
2019-05-06T03:31:16.387Z,97791.41
2019-05-06T03:34:05.964Z,97790.45
2019-05-06T03:36:27.047Z,97789.11
2019-05-06T03:38:56.380Z,97794.03
2019-05-06T03:41:27.971Z,97781.11
2019-05-06T03:44:03.179Z,97801.58
2019-05-06T03:47:10.211Z,97798.89
2019-05-06T03:49:49.603Z,97794.72
2019-05-06T03:52:18.558Z,97792.23
2019-05-06T03:54:53.679Z,97793.27
2019-05-06T03:57:26.461Z,97793.65
2019-05-06T04:00:00.213Z,97798.75
2019-05-06T04:02:33.620Z,97795.30
2019-05-06T04:05:06.475Z,97788.27
2019-05-06T04:07:38.238Z,97809.50
2019-05-06T04:10:13.349Z,97802.23
2019-05-06T04:12:45.964Z,97804.13
2019-05-06T04:15:18.083Z,97807.03
2019-05-06T04:17:54.280Z,97803.81
2019-05-06T04:20:35.210Z,97807.93
2019-05-06T04:23:28.737Z,97806.37
2019-05-06T04:26:23.970Z,97812.92
2019-05-06T04:28:55.083Z,97813.16
2019-05-06T04:31:27.509Z,97807.41
2019-05-06T04:34:09.963Z,97812.98
2019-05-06T04:36:35.100Z,97810.55
2019-05-06T04:39:07.587Z,97810.30
2019-05-06T04:41:39.448Z,97801.84
2019-05-06T04:44:13.934Z,97805.36
2019-05-06T04:46:44.670Z,97815.52
2019-05-06T04:49:17.958Z,97816.36
2019-05-06T04:51:49.495Z,97823.80
2019-05-06T04:54:26.185Z,97822.24
2019-05-06T04:56:55.246Z,97819.38
2019-05-06T04:59:26.885Z,97826.28
2019-05-06T05:01:58.572Z,97822.06
2019-05-06T05:04:32.430Z,97825.38
2019-05-06T05:07:03.873Z,97819.23
2019-05-06T05:09:35.601Z,97815.95
2019-05-06T05:12:13.473Z,97814.37
2019-05-06T05:15:04.160Z,97817.88
2019-05-06T05:17:48.560Z,97820.52
2019-05-06T05:20:35.910Z,97825.38
2019-05-06T05:22:53.413Z,97822.84
2019-05-06T05:25:25.677Z,97826.99
2019-05-06T05:27:57.493Z,97830.20
2019-05-06T05:30:32.822Z,97829.88
2019-05-06T05:33:04.787Z,97838.59
2019-05-06T05:35:37.860Z,97837.53
2019-05-06T05:38:09.527Z,97838.73
2019-05-06T05:40:43.002Z,97834.16
2019-05-06T05:43:22.810Z,97830.56
2019-05-06T05:45:54.863Z,97834.29
2019-05-06T05:48:42.752Z,97828.52
2019-05-06T05:51:14.498Z,97821.66
2019-05-06T05:53:46.178Z,97830.65
2019-05-06T05:56:18.594Z,97833.58
2019-05-06T05:58:53.517Z,97829.17
2019-05-06T06:01:26.394Z,97824.66
2019-05-06T06:03:58.775Z,97835.27
2019-05-06T06:06:33.013Z,97837.16
2019-05-06T06:09:06.435Z,97834.92
2019-05-06T06:11:59.958Z,97831.84
2019-05-06T06:14:53.387Z,97847.42
2019-05-06T06:17:48.841Z,97843.73
2019-05-06T06:20:38.877Z,97837.84
2019-05-06T06:23:25.663Z,97837.37
2019-05-06T06:25:57.226Z,97837.22
2019-05-06T06:28:29.231Z,97840.28
2019-05-06T06:31:23.203Z,97840.06
2019-05-06T06:34:03.660Z,97839.13
2019-05-06T06:36:48.098Z,97829.19
2019-05-06T06:39:23.077Z,97824.20
2019-05-06T06:41:54.901Z,97826.92
2019-05-06T06:44:29.811Z,97836.77
2019-05-06T06:47:02.093Z,97842.00
2019-05-06T06:49:33.858Z,97824.91
2019-05-06T06:52:11.288Z,97827.42
2019-05-06T06:54:43.603Z,97827.42
2019-05-06T06:57:32.290Z,97833.78
2019-05-06T07:00:23.598Z,97813.17
2019-05-06T07:02:59.935Z,97828.16
2019-05-06T07:05:42.438Z,97813.25
2019-05-06T07:08:14.873Z,97829.83
2019-05-06T07:10:46.451Z,97804.38
2019-05-06T07:13:19.202Z,97824.60
2019-05-06T07:15:51.987Z,97815.02
2019-05-06T07:18:23.751Z,97813.65
2019-05-06T07:21:14.121Z,97819.56
2019-05-06T07:23:45.802Z,97784.48
2019-05-06T07:26:19.045Z,97814.86
2019-05-06T07:28:52.685Z,97828.16
2019-05-06T07:31:26.732Z,97802.74
2019-05-06T07:33:58.284Z,97831.22
2019-05-06T07:36:32.244Z,97825.72
2019-05-06T07:39:06.413Z,97836.70
2019-05-06T07:41:45.921Z,97844.48
2019-05-06T07:44:45.295Z,97841.80
2019-05-06T07:47:33.122Z,97834.95
2019-05-06T07:50:05.955Z,97852.19
2019-05-06T07:52:37.967Z,97857.28
2019-05-06T07:55:12.029Z,97827.81
2019-05-06T19:06:25.029Z,97935.52
2019-05-06T19:09:19.034Z,97934.22
2019-05-06T19:11:54.301Z,97944.63
2019-05-06T19:14:26.906Z,97947.63
2019-05-06T19:17:02.580Z,97951.38
2019-05-06T19:19:34.977Z,97953.30
2019-05-06T19:22:07.009Z,97961.27
2019-05-06T19:24:42.313Z,97957.66
2019-05-06T19:27:13.677Z,97951.47
2019-05-06T19:29:45.488Z,97950.73
2019-05-06T19:32:17.356Z,97950.65
2019-05-06T19:34:49.128Z,97949.55
2019-05-06T19:37:23.104Z,97948.20
2019-05-06T19:39:55.024Z,97961.45
2019-05-06T19:42:26.751Z,97961.18
2019-05-06T19:45:02.337Z,97958.18
2019-05-06T19:47:34.202Z,97962.14
2019-05-06T19:50:06.630Z,97962.48
2019-05-06T19:52:39.275Z,97958.53
2019-05-06T19:55:12.320Z,97954.43
2019-05-06T19:57:45.020Z,97959.75
2019-05-06T20:00:18.187Z,97963.72
2019-05-06T20:02:52.158Z,97964.91
2019-05-06T20:05:46.157Z,97956.45
2019-05-06T20:08:25.664Z,97964.41
2019-05-06T20:11:33.077Z,97950.25
2019-05-06T20:14:04.863Z,97951.69
2019-05-06T20:16:37.001Z,97941.88
2019-05-06T20:19:08.660Z,97956.97
2019-05-06T20:21:42.418Z,97949.61
2019-05-06T20:24:14.387Z,97949.53
2019-05-06T20:26:46.289Z,97948.35
2019-05-06T20:29:17.913Z,97950.45
2019-05-06T20:31:50.014Z,97949.84
2019-05-06T20:34:22.603Z,97943.80
2019-05-06T20:36:54.460Z,97950.03
2019-05-06T20:39:26.130Z,97946.55
2019-05-06T20:41:58.296Z,97953.59
2019-05-06T20:44:32.423Z,97963.53
2019-05-06T20:47:04.109Z,97965.23
2019-05-06T20:49:38.718Z,97963.84
2019-05-06T20:52:12.277Z,97960.61
2019-05-06T20:54:43.889Z,97969.77
2019-05-06T20:57:15.519Z,97972.89
2019-05-06T20:59:47.345Z,97971.46
2019-05-06T21:02:18.977Z,97970.33
2019-05-06T21:04:50.791Z,97978.30
2019-05-06T21:07:23.122Z,97977.26
2019-05-06T21:09:54.972Z,97975.22
2019-05-06T21:12:27.027Z,97980.57
2019-05-06T21:14:58.580Z,97984.28
2019-05-06T21:17:32.287Z,97978.09
2019-05-06T21:20:05.041Z,97986.98
2019-05-06T21:22:36.729Z,97985.67
2019-05-06T21:25:08.947Z,97976.00
2019-05-06T21:27:42.397Z,97987.84
2019-05-06T21:30:15.912Z,97993.50
2019-05-06T21:32:47.637Z,97997.34
2019-05-06T21:35:19.479Z,97993.50
2019-05-06T21:37:52.960Z,97996.78
2019-05-06T21:40:24.847Z,98003.53
2019-05-06T21:42:57.297Z,97988.85
2019-05-06T21:45:30.355Z,98004.48
2019-05-06T21:48:02.829Z,97978.26
2019-05-06T21:50:34.925Z,97976.56
2019-05-06T21:53:06.660Z,97991.55
2019-05-06T21:55:38.634Z,97985.48
2019-05-06T21:58:12.266Z,97994.16
2019-05-06T22:00:52.717Z,97991.11
2019-05-06T22:03:24.895Z,97990.23
2019-05-06T22:05:57.519Z,97992.72
2019-05-06T22:08:30.011Z,97990.71
2019-05-06T22:11:02.893Z,97989.36
2019-05-06T22:13:36.095Z,97983.34
2019-05-06T22:16:07.596Z,97992.22
2019-05-06T22:18:39.560Z,97983.03
2019-05-06T22:21:22.488Z,97977.06
2019-05-06T22:23:59.432Z,97976.77
2019-05-06T22:26:32.443Z,97973.48
2019-05-06T22:29:05.295Z,97979.84
2019-05-06T22:31:36.996Z,97972.34
2019-05-06T22:34:08.674Z,97970.91
2019-05-06T22:36:40.388Z,97973.86
2019-05-06T22:39:13.617Z,97975.52
2019-05-06T22:41:46.183Z,97971.94
2019-05-06T22:44:18.626Z,97966.09
2019-05-06T22:46:50.286Z,97979.86
2019-05-06T22:49:22.868Z,97974.36
2019-05-06T22:51:55.416Z,97982.97
2019-05-06T22:54:26.928Z,97973.95
2019-05-06T22:56:58.705Z,97975.19
2019-05-06T22:59:30.289Z,97983.80
2019-05-06T23:02:19.627Z,97975.55
2019-05-06T23:04:54.379Z,97971.98
2019-05-06T23:07:26.438Z,97979.41
2019-05-06T23:09:58.232Z,97979.02
2019-05-06T23:12:32.446Z,97979.49
2019-05-06T23:15:04.646Z,97974.20
2019-05-06T23:17:36.321Z,97982.97
2019-05-06T23:20:09.123Z,97974.00
2019-05-06T23:22:42.635Z,97977.20
2019-05-06T23:25:14.560Z,97979.89
2019-05-06T23:27:46.472Z,97988.97
2019-05-06T23:30:18.499Z,97981.34
2019-05-06T23:32:50.241Z,97974.88
2019-05-06T23:35:22.249Z,97973.77
2019-05-06T23:38:33.768Z,97977.24
2019-05-06T23:41:39.202Z,97983.27
2019-05-06T23:44:47.404Z,97985.97
2019-05-06T23:47:54.874Z,97977.24
2019-05-06T23:51:02.371Z,97985.55
2019-05-06T23:54:09.727Z,97971.23
2019-05-06T23:56:43.418Z,97981.23
2019-05-06T23:59:15.864Z,97970.08
